Time;durP1;ratioP1;P1;durP2;ratioP2;P2;SDS_P1;SDS_P2;PMS_P1;PMS_P2;Temp;Humidity;BMP_temperature;BMP_pressure;BME280_temperature;BME280_humidity;BME280_pressure;Samples;Min_cycle;Max_cycle;Signal;HPM_P1;HPM_P2
2024/01/19 00:02:02;;;;;;;30.10;26.93;;;0.40;99.90;;;;;;5051491;28;20475;-80
2024/01/19 00:04:28;;;;;;;33.37;29.13;;;0.40;99.90;;;;;;5033658;28;20460;-80
2024/01/19 00:06:56;;;;;;;34.17;27.40;;;0.40;99.90;;;;;;5051673;28;20505;-79
2024/01/19 00:09:23;;;;;;;34.57;28.77;;;0.40;99.90;;;;;;5043992;28;21023;-79
2024/01/19 00:11:50;;;;;;;29.30;26.13;;;0.40;99.90;;;;;;5044633;28;20428;-79
2024/01/19 00:14:17;;;;;;;30.00;26.80;;;0.40;99.90;;;;;;5045983;28;20516;-79
2024/01/19 00:16:43;;;;;;;30.83;26.87;;;0.30;99.90;;;;;;5033649;28;20497;-80
2024/01/19 00:19:10;;;;;;;35.67;28.33;;;0.30;99.90;;;;;;5037130;28;20459;-80
2024/01/19 00:21:43;;;;;;;30.53;27.37;;;0.30;99.90;;;;;;5043967;28;20562;-79
2024/01/19 00:24:11;;;;;;;31.90;28.50;;;0.30;99.90;;;;;;5051465;28;21351;-79
2024/01/19 00:26:38;;;;;;;28.37;25.43;;;0.40;99.90;;;;;;5040352;28;20442;-79
2024/01/19 00:29:05;;;;;;;32.97;27.73;;;0.40;99.90;;;;;;5044317;28;20465;-79
2024/01/19 00:31:33;;;;;;;30.93;27.67;;;0.30;99.90;;;;;;5033602;28;20492;-79
2024/01/19 00:34:00;;;;;;;29.60;25.83;;;0.30;99.90;;;;;;5048005;28;20444;-78
2024/01/19 00:36:27;;;;;;;31.60;27.07;;;0.30;99.90;;;;;;5046578;28;20947;-79
2024/01/19 00:38:54;;;;;;;31.23;27.63;;;0.30;99.90;;;;;;5035657;28;20464;-79
2024/01/19 00:41:23;;;;;;;29.87;26.77;;;0.30;99.90;;;;;;5045847;28;20477;-79
2024/01/19 00:43:50;;;;;;;30.93;27.63;;;0.30;99.90;;;;;;5042479;28;20434;-79
2024/01/19 00:46:16;;;;;;;32.07;28.43;;;0.20;99.90;;;;;;5042920;28;20456;-79
2024/01/19 00:48:43;;;;;;;31.47;27.87;;;0.20;99.90;;;;;;5034218;28;20477;-78
2024/01/19 00:51:10;;;;;;;34.10;29.07;;;0.20;99.90;;;;;;5043350;28;20445;-79
2024/01/19 00:53:37;;;;;;;34.57;28.17;;;0.20;99.90;;;;;;5040812;28;20445;-78
2024/01/19 00:56:06;;;;;;;30.17;27.13;;;0.20;99.90;;;;;;5042612;28;20485;-79
2024/01/19 00:58:34;;;;;;;35.57;28.43;;;0.10;99.90;;;;;;5038345;28;20480;-78
2024/01/19 01:01:02;;;;;;;31.07;27.87;;;0.10;99.90;;;;;;5031338;28;20523;-79
2024/01/19 01:03:29;;;;;;;32.43;28.53;;;0.10;99.90;;;;;;5038228;28;21017;-79
2024/01/19 01:05:57;;;;;;;37.47;29.90;;;0.10;99.90;;;;;;5041933;28;20437;-79
2024/01/19 01:08:24;;;;;;;34.70;29.23;;;0.10;99.90;;;;;;5046937;28;20468;-79
2024/01/19 01:10:51;;;;;;;37.40;30.50;;;0.10;99.90;;;;;;5043861;28;20450;-79
2024/01/19 01:13:18;;;;;;;32.20;28.20;;;0.10;99.90;;;;;;5043805;28;20445;-79
2024/01/19 01:15:46;;;;;;;33.27;28.93;;;0.00;99.90;;;;;;5044523;28;20472;-79
2024/01/19 01:18:13;;;;;;;38.40;30.40;;;0.00;99.90;;;;;;5037626;28;20469;-79
2024/01/19 01:20:40;;;;;;;34.37;29.20;;;0.00;99.90;;;;;;5040176;28;20494;-79
2024/01/19 01:23:06;;;;;;;32.60;28.43;;;0.00;99.90;;;;;;5037025;28;20485;-79
2024/01/19 01:25:35;;;;;;;33.47;29.30;;;-0.10;99.90;;;;;;5034546;28;20812;-79
2024/01/19 01:28:02;;;;;;;33.07;29.43;;;0.00;99.90;;;;;;5033763;28;20464;-78
2024/01/19 01:30:29;;;;;;;33.10;29.57;;;0.00;99.90;;;;;;5032739;28;20445;-79
2024/01/19 01:32:57;;;;;;;31.03;27.70;;;0.00;99.90;;;;;;5044893;28;20450;-79
2024/01/19 01:35:24;;;;;;;34.00;28.63;;;0.00;99.90;;;;;;5041401;28;20504;-79
2024/01/19 01:37:50;;;;;;;33.97;28.43;;;0.00;99.90;;;;;;5039602;28;20530;-79
2024/01/19 01:40:17;;;;;;;31.53;28.20;;;0.00;99.90;;;;;;5042411;28;20440;-79
2024/01/19 01:42:45;;;;;;;30.77;27.57;;;0.10;99.90;;;;;;5031472;28;20534;-79
2024/01/19 01:45:12;;;;;;;31.87;28.10;;;0.10;99.90;;;;;;5037810;28;20437;-79
2024/01/19 01:47:39;;;;;;;34.13;28.97;;;0.10;99.90;;;;;;5039859;28;20528;-79
2024/01/19 01:50:08;;;;;;;33.87;27.73;;;0.20;99.90;;;;;;5048590;28;20447;-78
2024/01/19 01:52:35;;;;;;;31.30;27.90;;;0.20;99.90;;;;;;5031503;28;20445;-79
2024/01/19 01:55:02;;;;;;;37.97;30.40;;;0.20;99.90;;;;;;5046678;28;21000;-79
2024/01/19 01:57:29;;;;;;;32.77;29.17;;;0.20;99.90;;;;;;5039463;28;20468;-79
2024/01/19 01:59:56;;;;;;;33.40;29.13;;;0.20;99.90;;;;;;5041422;28;20460;-78
2024/01/19 02:02:23;;;;;;;36.83;28.83;;;0.20;99.90;;;;;;5045288;28;20490;-79
2024/01/19 02:04:50;;;;;;;34.50;28.77;;;0.20;99.90;;;;;;5033213;28;20685;-79
2024/01/19 02:07:18;;;;;;;34.73;28.17;;;0.20;99.90;;;;;;5038565;28;20467;-80
2024/01/19 02:09:45;;;;;;;29.57;26.43;;;0.20;99.90;;;;;;5041474;28;20504;-79
2024/01/19 02:12:13;;;;;;;31.67;27.40;;;0.20;99.90;;;;;;5050484;28;20933;-79
2024/01/19 02:14:40;;;;;;;32.93;27.60;;;0.20;99.90;;;;;;5040653;28;20450;-79
2024/01/19 02:17:07;;;;;;;31.63;28.00;;;0.20;99.90;;;;;;5033294;28;20455;-79
2024/01/19 02:19:35;;;;;;;30.37;27.10;;;0.20;99.90;;;;;;5044112;28;20465;-79
2024/01/19 02:22:02;;;;;;;30.63;27.20;;;0.20;99.90;;;;;;5033414;28;20480;-79
2024/01/19 02:24:30;;;;;;;30.03;26.93;;;0.20;99.90;;;;;;5045192;28;21017;-79
2024/01/19 02:26:57;;;;;;;30.10;26.37;;;0.20;99.90;;;;;;5047748;28;20444;-79
2024/01/19 02:29:24;;;;;;;31.63;27.77;;;0.30;99.90;;;;;;5044588;28;20468;-79
2024/01/19 02:31:51;;;;;;;31.20;26.40;;;0.30;99.90;;;;;;5039988;28;20492;-78
2024/01/19 02:34:17;;;;;;;30.83;27.07;;;0.20;99.90;;;;;;5042629;28;20433;-79
2024/01/19 02:36:44;;;;;;;29.47;26.20;;;0.20;99.90;;;;;;5039444;28;20449;-78
2024/01/19 02:39:11;;;;;;;30.87;27.10;;;0.20;99.90;;;;;;5040727;28;20449;-79
2024/01/19 02:41:39;;;;;;;31.33;27.57;;;0.20;99.90;;;;;;5035241;28;20486;-79
2024/01/19 02:44:06;;;;;;;32.33;28.13;;;0.20;99.90;;;;;;5042542;28;20487;-79
2024/01/19 02:46:33;;;;;;;32.90;29.43;;;0.20;99.90;;;;;;5036551;28;20458;-79
2024/01/19 02:49:00;;;;;;;32.70;27.57;;;0.20;99.90;;;;;;5042931;28;20460;-79
2024/01/19 02:51:27;;;;;;;30.90;27.53;;;0.20;99.90;;;;;;5044080;28;20529;-79
2024/01/19 02:53:53;;;;;;;30.90;27.00;;;0.20;99.90;;;;;;5039878;28;20438;-79
2024/01/19 02:56:20;;;;;;;32.30;27.07;;;0.20;99.90;;;;;;5043810;28;20851;-79
2024/01/19 02:58:48;;;;;;;32.13;28.80;;;0.20;99.90;;;;;;5039426;28;20887;-79
2024/01/19 03:01:15;;;;;;;28.53;25.50;;;0.20;99.90;;;;;;5047505;28;20445;-79
2024/01/19 03:03:42;;;;;;;30.50;27.23;;;0.20;99.90;;;;;;5033172;28;20476;-78
2024/01/19 03:06:09;;;;;;;31.03;26.97;;;0.20;99.90;;;;;;5042157;28;20447;-79
2024/01/19 03:08:35;;;;;;;31.57;28.27;;;0.10;99.90;;;;;;5037580;28;20497;-79
2024/01/19 03:11:02;;;;;;;35.53;31.67;;;0.10;99.90;;;;;;5041745;28;20445;-79
2024/01/19 03:13:29;;;;;;;31.83;28.50;;;0.10;99.90;;;;;;5037485;28;20454;-78
2024/01/19 03:15:58;;;;;;;34.33;28.83;;;0.10;99.90;;;;;;5044788;28;20859;-79
2024/01/19 03:18:24;;;;;;;46.30;30.83;;;0.10;99.90;;;;;;5040673;28;20926;-78
2024/01/19 03:20:51;;;;;;;38.67;30.13;;;0.10;99.90;;;;;;5029258;28;20440;-78
2024/01/19 03:23:18;;;;;;;37.03;30.63;;;0.10;99.90;;;;;;5043131;28;20983;-78
2024/01/19 03:25:45;;;;;;;35.90;31.33;;;0.10;99.90;;;;;;5038037;28;20943;-79
2024/01/19 03:28:11;;;;;;;36.80;31.03;;;0.10;99.90;;;;;;5045119;28;20915;-78
2024/01/19 03:30:38;;;;;;;36.93;30.37;;;0.20;99.90;;;;;;5032788;28;20919;-79
2024/01/19 03:33:06;;;;;;;40.27;30.43;;;0.10;99.90;;;;;;5042216;28;20449;-79
2024/01/19 03:35:33;;;;;;;34.17;30.00;;;0.10;99.90;;;;;;5030476;28;20835;-79
2024/01/19 03:38:00;;;;;;;34.20;30.40;;;0.10;99.90;;;;;;5043806;28;20495;-79
2024/01/19 03:40:27;;;;;;;36.27;29.83;;;0.10;99.90;;;;;;5041799;28;20457;-79
2024/01/19 03:42:53;;;;;;;36.77;30.33;;;0.10;99.90;;;;;;5042658;28;20588;-78
2024/01/19 03:45:20;;;;;;;40.23;29.93;;;0.10;99.90;;;;;;5046548;28;20874;-78
2024/01/19 03:47:47;;;;;;;34.93;30.63;;;0.10;99.90;;;;;;5040341;28;20474;-78
2024/01/19 03:50:14;;;;;;;34.63;30.70;;;0.20;99.90;;;;;;5045519;28;20436;-79
2024/01/19 03:52:41;;;;;;;35.27;29.83;;;0.10;99.90;;;;;;5042844;28;20449;-79
2024/01/19 03:55:08;;;;;;;33.47;29.07;;;0.10;99.90;;;;;;5035893;28;20453;-81
2024/01/19 03:57:35;;;;;;;32.50;28.83;;;0.10;99.90;;;;;;5030943;28;20466;-80
2024/01/19 04:00:05;;;;;;;32.13;28.77;;;0.10;99.90;;;;;;5031312;28;20465;-81
2024/01/19 04:02:38;;;;;;;32.63;28.27;;;0.00;99.90;;;;;;5033584;28;20491;-80
2024/01/19 04:05:06;;;;;;;30.57;27.17;;;-0.10;99.90;;;;;;5023722;28;20493;-80
2024/01/19 04:07:34;;;;;;;31.97;28.67;;;-0.20;99.90;;;;;;5022121;28;20896;-81
2024/01/19 04:10:01;;;;;;;34.40;28.60;;;-0.20;99.90;;;;;;5030615;28;20461;-80
2024/01/19 04:12:28;;;;;;;32.17;28.77;;;-0.30;99.90;;;;;;5039292;28;20436;-82
2024/01/19 04:14:55;;;;;;;32.10;28.27;;;-0.20;99.90;;;;;;5044042;28;20484;-80
2024/01/19 04:17:21;;;;;;;34.07;28.60;;;-0.20;99.90;;;;;;5029903;28;21093;-81
2024/01/19 04:19:48;;;;;;;32.40;28.07;;;-0.20;99.90;;;;;;5034333;28;20874;-80
2024/01/19 04:22:15;;;;;;;33.87;28.17;;;-0.20;99.90;;;;;;5048544;28;20443;-80
2024/01/19 04:24:45;;;;;;;31.27;27.97;;;-0.20;99.90;;;;;;5040002;28;20461;-78
2024/01/19 04:27:12;;;;;;;32.03;27.73;;;-0.20;99.90;;;;;;5052823;28;20511;-81
2024/01/19 04:29:39;;;;;;;30.00;26.93;;;-0.20;99.90;;;;;;5036524;28;20464;-80
2024/01/19 04:32:06;;;;;;;34.00;30.33;;;-0.20;99.90;;;;;;5035834;28;20504;-81
2024/01/19 04:34:33;;;;;;;33.47;28.60;;;-0.20;99.90;;;;;;5044115;28;20543;-81
2024/01/19 04:37:00;;;;;;;36.10;31.07;;;-0.30;99.90;;;;;;5045470;28;20832;-81
2024/01/19 04:39:26;;;;;;;35.27;30.30;;;-0.30;99.90;;;;;;5047859;28;20980;-81
2024/01/19 04:41:55;;;;;;;37.80;29.37;;;-0.20;99.90;;;;;;5044070;28;20446;-81
2024/01/19 04:44:22;;;;;;;34.90;29.77;;;-0.20;99.90;;;;;;5051523;28;20473;-78
2024/01/19 04:46:48;;;;;;;29.70;26.77;;;-0.20;99.90;;;;;;5034641;28;20442;-78
2024/01/19 04:49:15;;;;;;;32.47;28.97;;;-0.30;99.90;;;;;;5042406;28;20464;-79
2024/01/19 04:51:42;;;;;;;38.53;30.13;;;-0.30;99.90;;;;;;5043664;28;20544;-78
2024/01/19 04:54:09;;;;;;;37.87;30.60;;;-0.20;99.90;;;;;;5038731;28;20471;-78
2024/01/19 04:56:36;;;;;;;33.70;30.10;;;-0.20;99.90;;;;;;5045003;28;20441;-77
2024/01/19 04:59:05;;;;;;;35.43;31.20;;;-0.20;99.90;;;;;;5043995;28;20492;-77
2024/01/19 05:01:31;;;;;;;34.57;29.57;;;-0.20;99.90;;;;;;5040861;28;20443;-78
2024/01/19 05:03:58;;;;;;;34.87;31.10;;;-0.20;99.90;;;;;;5043561;28;20831;-79
2024/01/19 05:06:25;;;;;;;39.70;32.63;;;-0.20;99.90;;;;;;5041865;28;20518;-78
2024/01/19 05:08:52;;;;;;;35.33;30.23;;;-0.20;99.90;;;;;;5034863;28;20473;-78
2024/01/19 05:11:18;;;;;;;37.33;29.80;;;-0.20;99.90;;;;;;5042206;28;20453;-78
2024/01/19 05:13:45;;;;;;;36.77;30.87;;;-0.20;99.90;;;;;;5038799;28;20442;-78
2024/01/19 05:16:13;;;;;;;36.47;31.23;;;-0.20;99.90;;;;;;5043033;28;20845;-78
2024/01/19 05:18:40;;;;;;;38.93;30.97;;;-0.20;99.90;;;;;;5047803;28;20515;-78
2024/01/19 05:21:07;;;;;;;38.17;32.00;;;-0.20;99.90;;;;;;5036181;28;20441;-78
2024/01/19 05:23:34;;;;;;;34.97;30.77;;;-0.10;99.90;;;;;;5048239;28;20468;-78
2024/01/19 05:26:03;;;;;;;37.63;30.53;;;-0.10;99.90;;;;;;5035322;28;20473;-78
2024/01/19 05:28:32;;;;;;;35.40;31.03;;;-0.20;99.90;;;;;;5038147;28;20469;-78
2024/01/19 05:30:59;;;;;;;36.20;30.13;;;-0.10;99.90;;;;;;5035623;28;20489;-78
2024/01/19 05:33:27;;;;;;;34.90;30.53;;;-0.10;99.90;;;;;;5036593;28;20439;-78
2024/01/19 05:35:54;;;;;;;36.20;30.20;;;-0.10;99.90;;;;;;5037968;28;20474;-78
2024/01/19 05:38:20;;;;;;;33.80;30.30;;;-0.10;99.90;;;;;;5043316;28;20219;-78
2024/01/19 05:40:47;;;;;;;32.47;28.60;;;-0.10;99.90;;;;;;5035087;28;20438;-78
2024/01/19 05:43:14;;;;;;;31.70;28.17;;;-0.10;99.90;;;;;;5047686;28;20527;-78
2024/01/19 05:45:41;;;;;;;32.60;29.40;;;-0.20;99.90;;;;;;5036396;28;20499;-78
2024/01/19 05:48:07;;;;;;;31.23;28.07;;;-0.10;99.90;;;;;;5033093;28;20503;-79
2024/01/19 05:50:36;;;;;;;30.53;27.33;;;-0.10;99.90;;;;;;5026574;28;20450;-79
2024/01/19 05:53:03;;;;;;;32.80;29.17;;;-0.10;99.90;;;;;;5040278;28;20437;-79
2024/01/19 05:55:30;;;;;;;33.40;29.80;;;-0.10;99.90;;;;;;5040985;28;20219;-78
2024/01/19 05:57:57;;;;;;;33.20;29.67;;;-0.10;99.90;;;;;;5040362;28;20462;-78
2024/01/19 06:00:24;;;;;;;33.93;30.30;;;0.00;99.90;;;;;;5042210;28;20449;-78
2024/01/19 06:02:51;;;;;;;37.33;28.83;;;0.00;99.90;;;;;;5040027;28;20444;-78
2024/01/19 06:05:18;;;;;;;32.43;29.20;;;0.10;99.90;;;;;;5046142;28;20507;-78
2024/01/19 06:07:46;;;;;;;29.90;26.90;;;0.10;99.90;;;;;;5043952;28;20602;-78
2024/01/19 06:10:13;;;;;;;30.97;27.47;;;0.10;99.90;;;;;;5039731;28;20868;-79
2024/01/19 06:12:40;;;;;;;30.30;27.20;;;0.10;99.90;;;;;;5042098;28;20907;-79
2024/01/19 06:15:07;;;;;;;30.97;27.50;;;0.10;99.90;;;;;;5040802;28;20491;-79
2024/01/19 06:17:34;;;;;;;30.77;27.70;;;0.10;99.90;;;;;;5045267;28;20509;-79
2024/01/19 06:20:01;;;;;;;29.20;26.17;;;0.10;99.90;;;;;;5042554;28;20258;-79
2024/01/19 06:22:27;;;;;;;31.50;28.33;;;0.10;99.90;;;;;;5047952;28;20230;-79
2024/01/19 06:24:56;;;;;;;29.10;26.20;;;0.10;99.90;;;;;;5045610;28;20254;-78
2024/01/19 06:27:23;;;;;;;30.37;27.27;;;0.10;99.90;;;;;;5044307;28;20627;-78
2024/01/19 06:29:49;;;;;;;30.67;27.47;;;0.10;99.90;;;;;;5049886;28;20473;-79
2024/01/19 06:32:16;;;;;;;32.07;28.27;;;0.00;99.90;;;;;;5034880;28;20196;-78
2024/01/19 06:34:44;;;;;;;31.63;27.57;;;0.10;99.90;;;;;;5050152;28;20194;-77
2024/01/19 06:37:11;;;;;;;31.57;28.23;;;0.10;99.90;;;;;;5043304;28;20437;-78
2024/01/19 06:39:38;;;;;;;30.57;27.60;;;0.10;99.90;;;;;;5034684;28;20880;-79
2024/01/19 06:42:06;;;;;;;31.67;28.27;;;0.10;99.90;;;;;;5041967;28;20640;-79
2024/01/19 06:44:33;;;;;;;29.67;26.70;;;0.10;99.90;;;;;;5037308;28;20480;-78
2024/01/19 06:46:59;;;;;;;30.27;27.07;;;0.10;99.90;;;;;;5037609;28;20872;-78
2024/01/19 06:49:26;;;;;;;30.20;27.10;;;0.10;99.90;;;;;;5042804;28;20442;-79
2024/01/19 06:51:53;;;;;;;28.03;25.30;;;0.10;99.90;;;;;;5041230;28;20454;-78
2024/01/19 06:54:20;;;;;;;28.10;25.30;;;0.10;99.90;;;;;;5037329;28;21130;-79
2024/01/19 06:56:46;;;;;;;29.20;26.20;;;0.10;99.90;;;;;;5042719;28;20435;-78
2024/01/19 06:59:14;;;;;;;27.53;24.87;;;0.10;99.90;;;;;;5045896;28;20458;-77
2024/01/19 07:01:41;;;;;;;27.13;24.63;;;0.10;99.90;;;;;;5033992;28;20207;-76
2024/01/19 07:04:08;;;;;;;27.47;24.77;;;0.20;99.90;;;;;;5038109;28;20527;-77
2024/01/19 07:06:35;;;;;;;29.73;26.83;;;0.10;99.90;;;;;;5037394;28;20895;-77
2024/01/19 07:09:02;;;;;;;28.57;25.50;;;0.20;99.90;;;;;;5042697;28;20943;-77
2024/01/19 07:11:28;;;;;;;31.10;27.63;;;0.20;99.90;;;;;;5037563;28;20443;-77
2024/01/19 07:13:55;;;;;;;29.70;26.50;;;0.20;99.90;;;;;;5048263;28;20951;-79
2024/01/19 07:16:23;;;;;;;29.07;26.07;;;0.20;99.90;;;;;;5041696;28;20992;-80
2024/01/19 07:18:50;;;;;;;29.13;26.30;;;0.20;99.90;;;;;;5044297;28;20482;-79
2024/01/19 07:21:17;;;;;;;31.20;27.80;;;0.10;99.90;;;;;;5043151;28;20446;-81
2024/01/19 07:23:44;;;;;;;31.37;28.13;;;0.20;99.90;;;;;;5037503;28;20466;-79
2024/01/19 07:26:11;;;;;;;30.57;27.37;;;0.10;99.90;;;;;;5031582;28;20471;-81
2024/01/19 07:28:38;;;;;;;31.70;28.40;;;0.10;99.90;;;;;;5040881;28;20478;-81
2024/01/19 07:31:05;;;;;;;28.53;25.93;;;0.10;99.90;;;;;;5050972;28;20437;-81
2024/01/19 07:33:33;;;;;;;29.70;26.77;;;0.20;99.90;;;;;;5040705;28;20928;-81
2024/01/19 07:36:00;;;;;;;30.57;27.27;;;0.10;99.90;;;;;;5051003;28;20507;-81
2024/01/19 07:38:28;;;;;;;32.50;27.60;;;0.10;99.90;;;;;;5043961;28;20461;-82
2024/01/19 07:40:55;;;;;;;29.63;26.43;;;0.20;99.90;;;;;;5042790;28;20478;-82
2024/01/19 07:43:21;;;;;;;30.40;26.83;;;0.10;99.90;;;;;;5051668;28;20464;-82
2024/01/19 07:45:48;;;;;;;29.80;26.67;;;0.20;99.90;;;;;;5037120;28;20491;-81
2024/01/19 07:48:18;;;;;;;28.43;25.60;;;0.20;99.90;;;;;;5044297;28;20473;-81
2024/01/19 07:50:46;;;;;;;30.27;27.10;;;0.20;99.90;;;;;;5049837;28;20451;-79
2024/01/19 07:53:13;;;;;;;30.80;27.60;;;0.30;99.90;;;;;;5044205;28;21133;-79
2024/01/19 07:55:40;;;;;;;29.00;26.17;;;0.30;99.90;;;;;;5049172;28;20486;-79
2024/01/19 07:58:07;;;;;;;30.07;27.13;;;0.30;99.90;;;;;;5045322;28;20450;-79
2024/01/19 08:00:34;;;;;;;28.40;25.60;;;0.30;99.90;;;;;;5048810;28;20503;-79
2024/01/19 08:03:01;;;;;;;29.03;25.97;;;0.30;99.90;;;;;;5037034;28;20441;-79
2024/01/19 08:05:27;;;;;;;27.27;24.83;;;0.30;99.90;;;;;;5045178;28;20480;-79
2024/01/19 08:07:56;;;;;;;28.27;25.43;;;0.30;99.90;;;;;;5045850;28;20464;-79
2024/01/19 08:10:22;;;;;;;27.27;24.73;;;0.40;99.90;;;;;;5045770;28;20502;-79
2024/01/19 08:12:49;;;;;;;28.77;25.13;;;0.40;99.90;;;;;;5037674;28;20503;-79
2024/01/19 08:15:16;;;;;;;26.53;24.00;;;0.50;99.90;;;;;;5045706;28;20488;-79
2024/01/19 08:17:43;;;;;;;27.43;24.83;;;0.50;99.90;;;;;;5031730;28;20469;-79
2024/01/19 08:20:10;;;;;;;26.80;24.07;;;0.50;99.90;;;;;;5038967;28;20444;-79
2024/01/19 08:22:38;;;;;;;25.67;22.97;;;0.50;99.90;;;;;;5036852;28;20442;-79
2024/01/19 08:25:06;;;;;;;26.23;23.43;;;0.60;99.90;;;;;;5049639;28;20512;-79
2024/01/19 08:27:33;;;;;;;27.80;23.93;;;0.60;99.90;;;;;;5037787;28;20492;-78
2024/01/19 08:30:00;;;;;;;27.93;25.23;;;0.60;99.90;;;;;;5045589;28;20535;-79
2024/01/19 08:32:27;;;;;;;26.23;23.63;;;0.60;99.90;;;;;;5050061;28;20503;-79
2024/01/19 08:34:54;;;;;;;29.50;25.80;;;0.60;99.90;;;;;;5041510;28;20452;-79
2024/01/19 08:37:21;;;;;;;27.13;24.47;;;0.60;99.90;;;;;;5042514;28;20461;-79
2024/01/19 08:39:47;;;;;;;27.40;24.60;;;0.70;99.90;;;;;;5039992;28;21176;-79
2024/01/19 08:42:16;;;;;;;28.10;25.20;;;0.80;99.90;;;;;;5032857;28;20457;-79
2024/01/19 08:44:45;;;;;;;27.53;24.70;;;1.00;99.90;;;;;;5040264;28;20556;-78
2024/01/19 08:47:11;;;;;;;27.50;24.60;;;1.20;99.90;;;;;;5044932;28;20429;-78
2024/01/19 08:49:38;;;;;;;27.83;24.90;;;1.50;99.90;;;;;;5037870;28;20447;-79
2024/01/19 08:52:05;;;;;;;25.97;23.50;;;1.70;99.90;;;;;;5044723;28;20260;-79
2024/01/19 08:54:32;;;;;;;25.97;23.47;;;1.80;99.90;;;;;;5038561;28;20203;-79
2024/01/19 08:56:59;;;;;;;25.33;22.90;;;1.80;99.90;;;;;;5040677;28;20200;-77
2024/01/19 08:59:28;;;;;;;25.47;23.17;;;1.80;99.90;;;;;;5037420;28;20254;-78
2024/01/19 09:01:55;;;;;;;25.10;22.70;;;1.80;99.90;;;;;;5038337;28;20266;-76
2024/01/19 09:04:21;;;;;;;23.80;21.73;;;1.90;99.90;;;;;;5037929;28;20634;-82
2024/01/19 09:06:48;;;;;;;23.83;21.60;;;1.90;99.90;;;;;;5042251;28;20285;-81
2024/01/19 09:09:15;;;;;;;23.83;21.77;;;1.90;99.90;;;;;;5036246;28;20230;-81
2024/01/19 09:11:42;;;;;;;24.20;22.10;;;1.90;99.90;;;;;;5042777;28;20207;-80
2024/01/19 09:14:13;;;;;;;23.97;21.73;;;1.90;99.90;;;;;;5044650;28;20188;-82
2024/01/19 09:16:44;;;;;;;25.30;22.93;;;1.90;99.90;;;;;;5038970;28;20298;-78
2024/01/19 09:19:11;;;;;;;24.80;22.50;;;1.80;99.90;;;;;;5048290;28;20214;-78
2024/01/19 09:21:39;;;;;;;25.07;22.73;;;1.70;99.90;;;;;;5045621;28;20200;-78
2024/01/19 09:24:06;;;;;;;23.43;21.33;;;1.70;99.90;;;;;;5041638;28;20230;-79
2024/01/19 09:26:33;;;;;;;23.00;21.10;;;1.80;99.90;;;;;;5040627;28;20282;-79
2024/01/19 09:29:00;;;;;;;22.60;20.53;;;2.00;99.90;;;;;;5037139;28;20220;-78
2024/01/19 09:31:27;;;;;;;23.50;21.07;;;2.20;99.90;;;;;;5035895;28;20227;-79
2024/01/19 09:33:55;;;;;;;24.03;21.87;;;2.20;99.90;;;;;;5042603;28;20607;-78
2024/01/19 09:36:21;;;;;;;23.00;21.00;;;2.10;99.90;;;;;;5048593;28;20662;-79
2024/01/19 09:38:48;;;;;;;23.90;21.80;;;2.10;99.90;;;;;;5042405;28;20580;-78
2024/01/19 09:41:26;;;;;;;22.50;20.50;;;2.00;99.90;;;;;;5033922;28;20191;-79
2024/01/19 09:43:55;;;;;;;24.60;22.27;;;2.00;99.90;;;;;;5037768;28;20261;-78
2024/01/19 09:46:27;;;;;;;24.57;22.27;;;1.90;99.90;;;;;;5031132;28;20678;-78
2024/01/19 09:49:00;;;;;;;22.90;20.83;;;2.00;99.90;;;;;;5035293;28;20625;-78
2024/01/19 09:51:36;;;;;;;23.33;21.37;;;2.00;99.90;;;;;;5038029;28;20231;-78
2024/01/19 09:54:08;;;;;;;23.00;21.00;;;2.00;99.90;;;;;;5046688;28;20200;-79
2024/01/19 09:56:36;;;;;;;23.07;21.10;;;2.00;99.90;;;;;;5022946;28;20253;-78
2024/01/19 09:59:06;;;;;;;22.43;20.50;;;1.90;99.90;;;;;;5045384;28;20243;-78
2024/01/19 10:01:34;;;;;;;22.60;20.50;;;1.90;99.90;;;;;;5037953;28;20191;-78
2024/01/19 10:04:06;;;;;;;23.10;21.00;;;1.90;99.90;;;;;;5040050;28;20259;-78
2024/01/19 10:06:33;;;;;;;21.70;19.70;;;1.90;99.90;;;;;;5044216;28;20287;-78
2024/01/19 10:09:00;;;;;;;22.67;20.60;;;1.90;99.90;;;;;;5046396;28;20220;-78
2024/01/19 10:11:31;;;;;;;21.37;19.37;;;1.90;99.90;;;;;;5048751;28;20199;-78
2024/01/19 10:13:58;;;;;;;21.53;19.67;;;1.90;99.90;;;;;;5036631;28;20196;-79
2024/01/19 10:16:25;;;;;;;20.73;18.83;;;1.90;99.90;;;;;;5048311;28;20249;-79
2024/01/19 10:18:52;;;;;;;21.53;19.53;;;1.90;99.90;;;;;;5038498;28;20236;-78
2024/01/19 10:21:28;;;;;;;20.23;18.43;;;1.80;99.90;;;;;;5043841;28;20199;-79
2024/01/19 10:24:09;;;;;;;20.70;18.97;;;1.70;99.90;;;;;;5041481;28;20195;-79
2024/01/19 10:26:37;;;;;;;20.37;18.57;;;1.70;99.90;;;;;;5049113;28;20234;-79
2024/01/19 10:29:11;;;;;;;20.20;18.67;;;1.80;99.90;;;;;;5041863;28;20306;-79
2024/01/19 10:31:39;;;;;;;20.40;18.80;;;1.80;99.90;;;;;;5045426;28;20194;-78
2024/01/19 10:34:06;;;;;;;20.10;18.50;;;1.80;99.90;;;;;;5046185;28;20199;-79
2024/01/19 10:36:40;;;;;;;19.67;18.07;;;1.70;99.90;;;;;;5051903;28;20196;-79
2024/01/19 10:39:16;;;;;;;21.20;19.40;;;1.80;99.90;;;;;;5040929;28;20223;-78
2024/01/19 10:41:43;;;;;;;21.07;19.13;;;1.70;99.90;;;;;;5044678;28;20199;-79
2024/01/19 10:44:11;;;;;;;20.90;18.97;;;1.70;99.90;;;;;;5045689;28;20244;-79
2024/01/19 10:46:38;;;;;;;21.23;19.10;;;1.70;99.90;;;;;;5045874;28;20660;-78
2024/01/19 10:49:05;;;;;;;21.80;19.80;;;1.90;99.90;;;;;;5048169;28;20235;-79
2024/01/19 10:51:36;;;;;;;21.73;19.43;;;2.10;99.90;;;;;;5045940;28;20202;-78
2024/01/19 10:54:04;;;;;;;22.23;20.13;;;2.40;99.90;;;;;;5042825;28;20259;-78
2024/01/19 10:56:31;;;;;;;20.87;19.20;;;2.70;99.90;;;;;;5034605;28;20651;-79
2024/01/19 10:59:10;;;;;;;21.53;19.63;;;3.10;99.90;;;;;;5045734;28;20223;-79
2024/01/19 11:01:37;;;;;;;20.60;18.80;;;3.20;99.90;;;;;;5040342;28;20196;-76
2024/01/19 11:04:06;;;;;;;20.40;18.57;;;3.10;99.90;;;;;;5044725;28;20192;-77
2024/01/19 11:06:34;;;;;;;19.97;18.27;;;3.00;99.90;;;;;;5040161;28;20245;-77
2024/01/19 11:09:01;;;;;;;20.97;19.27;;;2.80;99.90;;;;;;5048100;28;20224;-76
2024/01/19 11:11:32;;;;;;;20.80;19.03;;;2.60;99.90;;;;;;5045253;28;20252;-76
2024/01/19 11:14:02;;;;;;;21.73;19.90;;;2.40;99.90;;;;;;5041118;28;20200;-76
2024/01/19 11:16:31;;;;;;;22.67;20.87;;;2.20;99.90;;;;;;5042880;28;20246;-77
2024/01/19 11:19:00;;;;;;;22.40;20.60;;;2.20;99.90;;;;;;5024741;28;20236;-76
2024/01/19 11:21:27;;;;;;;20.63;18.87;;;2.20;99.90;;;;;;5045362;28;20192;-76
2024/01/19 11:23:54;;;;;;;21.33;19.63;;;2.30;99.90;;;;;;5042132;28;20563;-76
2024/01/19 11:26:26;;;;;;;20.37;18.70;;;2.50;99.90;;;;;;5045390;28;20733;-76
2024/01/19 11:28:59;;;;;;;21.13;19.47;;;2.60;99.90;;;;;;5030360;28;20283;-75
2024/01/19 11:31:30;;;;;;;21.07;19.27;;;2.80;99.90;;;;;;5043168;28;20213;-76
2024/01/19 11:33:57;;;;;;;20.17;18.53;;;3.00;99.90;;;;;;5032512;28;20326;-76
2024/01/19 11:36:51;;;;;;;19.40;17.80;;;3.10;99.90;;;;;;5053067;28;20199;-76
2024/01/19 11:39:41;;;;;;;19.10;17.40;;;3.40;99.90;;;;;;4979891;28;20222;-77
2024/01/19 11:42:08;;;;;;;18.03;16.73;;;3.40;99.90;;;;;;5042961;28;20199;-76
2024/01/19 11:44:45;;;;;;;19.43;17.87;;;3.40;99.90;;;;;;5048643;28;20191;-76
2024/01/19 11:47:44;;;;;;;19.33;17.70;;;3.30;99.90;;;;;;5035303;28;20218;-76
2024/01/19 11:50:12;;;;;;;19.50;18.00;;;3.30;99.90;;;;;;5045702;28;20302;-78
2024/01/19 11:52:43;;;;;;;19.17;17.57;;;3.30;99.90;;;;;;5046017;28;20706;-78
2024/01/19 11:55:39;;;;;;;19.30;17.70;;;3.40;99.90;;;;;;5050105;28;20202;-78
2024/01/19 11:58:32;;;;;;;19.27;17.70;;;3.30;99.90;;;;;;5041981;28;20612;-78
2024/01/19 12:01:03;;;;;;;19.87;18.37;;;3.40;99.90;;;;;;5040856;28;20655;-77
2024/01/19 12:03:30;;;;;;;18.93;17.50;;;3.50;99.90;;;;;;5046225;28;20191;-78
2024/01/19 12:05:59;;;;;;;19.47;17.90;;;3.50;99.90;;;;;;5034302;28;20216;-80
2024/01/19 12:08:26;;;;;;;17.27;15.87;;;3.50;99.90;;;;;;5039620;28;20278;-82
2024/01/19 12:11:04;;;;;;;18.33;16.83;;;3.60;99.90;;;;;;5047226;28;20208;-79
2024/01/19 12:13:31;;;;;;;17.97;16.57;;;3.70;99.90;;;;;;5046772;28;20279;-80
2024/01/19 12:16:00;;;;;;;18.53;17.03;;;3.60;99.90;;;;;;5041986;28;20238;-79
2024/01/19 12:18:28;;;;;;;17.80;16.40;;;3.50;99.90;;;;;;5040075;28;20224;-79
2024/01/19 12:20:56;;;;;;;17.10;15.90;;;3.50;99.90;;;;;;5044058;28;20679;-80
2024/01/19 12:23:23;;;;;;;18.70;17.20;;;3.40;99.90;;;;;;5037589;28;20191;-79
2024/01/19 12:25:56;;;;;;;19.60;18.03;;;3.30;99.90;;;;;;5031937;28;20255;-80
2024/01/19 12:28:23;;;;;;;19.60;18.00;;;3.20;99.90;;;;;;5032682;28;20307;-80
2024/01/19 12:30:51;;;;;;;19.43;17.80;;;3.00;99.90;;;;;;5035170;28;20740;-80
2024/01/19 12:33:21;;;;;;;19.37;17.87;;;2.90;99.90;;;;;;5037488;28;20199;-80
2024/01/19 12:35:48;;;;;;;18.97;17.47;;;2.70;99.90;;;;;;5047366;28;20271;-80
2024/01/19 12:38:16;;;;;;;19.43;17.87;;;2.60;99.90;;;;;;5042686;28;20261;-80
2024/01/19 12:40:44;;;;;;;19.23;17.83;;;2.60;99.90;;;;;;5048235;28;20207;-79